createdAt,value
2023-05-03T00:00:20.008Z,99
2023-05-03T00:00:49.498Z,99
2023-05-03T00:01:19.687Z,99
2023-05-03T00:01:51.410Z,99
2023-05-03T00:02:21.810Z,99
2023-05-03T00:02:53.453Z,99
2023-05-03T00:03:23.764Z,99
2023-05-03T00:03:55.430Z,99
2023-05-03T00:04:26.645Z,99
2023-05-03T00:04:57.438Z,99
2023-05-03T00:05:28.258Z,99
2023-05-03T00:05:59.397Z,99
2023-05-03T00:06:29.694Z,99
2023-05-03T00:07:02.203Z,99
2023-05-03T00:07:31.771Z,99
2023-05-03T00:08:03.888Z,99
2023-05-03T00:08:33.688Z,99
2023-05-03T00:09:05.389Z,99
2023-05-03T00:09:37.308Z,99
2023-05-03T00:10:08.171Z,99
2023-05-03T00:10:37.719Z,99
2023-05-03T00:11:09.380Z,99
2023-05-03T00:11:39.694Z,99
2023-05-03T00:12:11.609Z,99
2023-05-03T00:12:41.740Z,99
2023-05-03T00:13:13.367Z,99
2023-05-03T00:13:43.928Z,99
2023-05-03T00:14:15.360Z,99
2023-05-03T00:14:46.674Z,99
2023-05-03T00:15:18.232Z,99
2023-05-03T00:15:47.719Z,99
2023-05-03T00:16:19.415Z,99
2023-05-03T00:16:49.834Z,99
2023-05-03T00:17:21.356Z,99
2023-05-03T00:17:51.891Z,99
2023-05-03T00:18:23.371Z,99
2023-05-03T00:18:53.662Z,99
2023-05-03T00:19:31.534Z,99
2023-05-03T00:19:56.687Z,99
2023-05-03T00:20:36.292Z,99
2023-05-03T00:20:57.656Z,99
2023-05-03T00:21:29.452Z,99
2023-05-03T00:21:59.705Z,99
2023-05-03T00:22:31.582Z,99
2023-05-03T00:23:01.816Z,99
2023-05-03T00:23:33.783Z,99
2023-05-03T00:24:03.702Z,99
2023-05-03T00:24:35.378Z,99
2023-05-03T00:25:07.238Z,99
2023-05-03T00:25:37.390Z,99
2023-05-03T00:26:07.761Z,99
2023-05-03T00:26:39.352Z,99
2023-05-03T00:27:10.359Z,99
2023-05-03T00:27:41.388Z,99
2023-05-03T00:28:11.664Z,99
2023-05-03T00:28:43.350Z,99
2023-05-03T00:29:13.651Z,99
2023-05-03T00:29:45.366Z,99
2023-05-03T00:30:18.250Z,99
2023-05-03T00:30:47.270Z,99
2023-05-03T00:31:18.417Z,99
2023-05-03T00:31:48.674Z,99
2023-05-03T00:32:20.390Z,99
2023-05-03T00:32:50.739Z,99
2023-05-03T00:33:22.366Z,99
2023-05-03T00:33:52.682Z,99
2023-05-03T00:34:24.422Z,99
2023-05-03T00:34:54.690Z,99
2023-05-03T00:35:27.931Z,99
2023-05-03T00:35:56.817Z,99
2023-05-03T00:36:28.384Z,99
2023-05-03T00:36:58.696Z,99
2023-05-03T00:37:30.358Z,99
2023-05-03T00:38:01.189Z,99
2023-05-03T00:38:32.345Z,99
2023-05-03T00:39:02.853Z,99
2023-05-03T00:39:34.555Z,99
2023-05-03T00:40:05.818Z,99
2023-05-03T00:40:37.904Z,99
2023-05-03T00:41:06.980Z,99
2023-05-03T00:41:38.440Z,99
2023-05-03T00:42:08.695Z,99
2023-05-03T00:42:40.400Z,99
2023-05-03T00:43:10.688Z,99
2023-05-03T00:43:42.354Z,99
2023-05-03T00:44:12.768Z,99
2023-05-03T00:44:44.372Z,99
2023-05-03T00:45:15.587Z,99
2023-05-03T00:45:47.423Z,99
2023-05-03T00:46:17.789Z,99
2023-05-03T00:46:48.502Z,99
2023-05-03T00:47:18.682Z,99
2023-05-03T00:47:50.432Z,99
2023-05-03T00:48:20.683Z,99
2023-05-03T00:48:52.426Z,99
2023-05-03T00:49:22.675Z,99
2023-05-03T00:49:54.386Z,99
2023-05-03T00:50:25.193Z,99
2023-05-03T00:50:57.343Z,99
2023-05-03T00:51:27.013Z,99
2023-05-03T00:51:58.461Z,99
2023-05-03T00:52:28.716Z,99
2023-05-03T00:53:00.366Z,99
2023-05-03T00:53:30.765Z,99
2023-05-03T00:54:03.016Z,99
2023-05-03T00:54:32.686Z,99
2023-05-03T00:55:05.494Z,99
2023-05-03T00:55:34.968Z,99
2023-05-03T00:56:07.357Z,99
2023-05-03T00:56:47.834Z,99
2023-05-03T00:57:08.442Z,99
2023-05-03T00:57:38.666Z,99
2023-05-03T00:58:10.432Z,99
2023-05-03T00:58:40.861Z,99
2023-05-03T00:59:12.463Z,99
2023-05-03T00:59:42.650Z,99
2023-05-03T01:00:16.970Z,99
2023-05-03T01:00:48.612Z,99
2023-05-03T01:01:17.482Z,99
2023-05-03T01:01:47.035Z,99
2023-05-03T01:02:18.376Z,99
2023-05-03T01:02:48.785Z,99
2023-05-03T01:03:20.500Z,99
2023-05-03T01:03:50.905Z,99
2023-05-03T01:04:22.733Z,99
2023-05-03T01:04:52.977Z,99
2023-05-03T01:05:24.849Z,99
2023-05-03T01:05:54.654Z,99
2023-05-03T01:06:27.437Z,99
2023-05-03T01:06:56.800Z,99
2023-05-03T01:07:28.883Z,99
2023-05-03T01:07:58.709Z,99
2023-05-03T01:08:30.337Z,99
2023-05-03T01:09:00.983Z,99
2023-05-03T01:09:32.428Z,99
2023-05-03T01:10:03.691Z,99
2023-05-03T01:10:34.405Z,99
2023-05-03T01:11:04.640Z,99
2023-05-03T01:11:37.363Z,99
2023-05-03T01:12:06.961Z,99
2023-05-03T01:12:38.338Z,99
2023-05-03T01:13:08.718Z,99
2023-05-03T01:13:40.382Z,99
2023-05-03T01:14:10.679Z,99
2023-05-03T01:14:42.354Z,99
2023-05-03T01:15:14.081Z,99
2023-05-03T01:15:44.454Z,99
2023-05-03T01:16:14.727Z,99
2023-05-03T01:16:47.843Z,99
2023-05-03T01:17:16.662Z,99
2023-05-03T01:17:48.368Z,99
2023-05-03T01:18:19.102Z,99
2023-05-03T01:18:50.356Z,99
2023-05-03T01:19:20.672Z,99
2023-05-03T01:19:52.326Z,99
2023-05-03T01:20:23.218Z,99
2023-05-03T01:20:55.233Z,99
2023-05-03T01:21:24.648Z,99
2023-05-03T01:21:57.349Z,99
2023-05-03T01:22:27.156Z,99
2023-05-03T01:22:58.383Z,99
2023-05-03T01:23:28.677Z,99
2023-05-03T01:24:00.362Z,99
2023-05-03T01:24:30.623Z,99
2023-05-03T01:25:03.460Z,99
2023-05-03T01:25:32.865Z,99
2023-05-03T01:26:04.443Z,99
2023-05-03T01:26:35.561Z,99
2023-05-03T01:27:07.358Z,99
2023-05-03T01:27:36.771Z,99
2023-05-03T01:28:08.413Z,99
2023-05-03T01:28:38.655Z,99
2023-05-03T01:29:10.331Z,99
2023-05-03T01:29:40.664Z,99
2023-05-03T01:30:12.508Z,99
2023-05-03T01:30:42.694Z,99
2023-05-03T01:31:14.410Z,99
2023-05-03T01:31:45.140Z,99
2023-05-03T01:32:17.316Z,99
2023-05-03T01:32:47.108Z,99
2023-05-03T01:33:18.334Z,99
2023-05-03T01:33:48.648Z,99
2023-05-03T01:34:21.143Z,99
2023-05-03T01:34:50.690Z,99
2023-05-03T01:35:23.188Z,99
2023-05-03T01:35:52.650Z,99
2023-05-03T01:36:24.331Z,99
2023-05-03T01:36:54.640Z,99
2023-05-03T01:37:27.367Z,99
2023-05-03T01:37:56.649Z,99
2023-05-03T01:38:28.394Z,99
2023-05-03T01:38:58.634Z,99
2023-05-03T01:39:30.364Z,99
2023-05-03T01:40:02.376Z,99
2023-05-03T01:40:36.347Z,99
2023-05-03T01:41:02.943Z,99
2023-05-03T01:41:34.534Z,99
2023-05-03T01:42:04.647Z,99
2023-05-03T01:42:37.364Z,99
2023-05-03T01:43:06.953Z,99
2023-05-03T01:43:38.508Z,99
2023-05-03T01:44:08.687Z,99
2023-05-03T01:44:40.423Z,99
2023-05-03T01:45:12.012Z,99
2023-05-03T01:45:42.572Z,99
2023-05-03T01:46:12.666Z,99
2023-05-03T01:46:44.382Z,99
2023-05-03T01:47:14.657Z,99
2023-05-03T01:47:47.426Z,99
2023-05-03T01:48:16.651Z,99
2023-05-03T01:48:48.365Z,99
2023-05-03T01:49:18.697Z,99
2023-05-03T01:49:50.341Z,99
2023-05-03T01:50:21.176Z,99
2023-05-03T01:50:52.374Z,99
2023-05-03T01:51:22.634Z,99
2023-05-03T01:51:54.366Z,99
2023-05-03T01:52:24.748Z,99
2023-05-03T01:52:57.332Z,99
2023-05-03T01:53:26.968Z,99
2023-05-03T01:53:58.686Z,99
2023-05-03T01:54:28.956Z,99
2023-05-03T01:55:00.430Z,99
2023-05-03T01:55:31.248Z,99
2023-05-03T01:56:02.471Z,99
2023-05-03T01:56:33.469Z,99
2023-05-03T01:57:04.488Z,99
2023-05-03T01:57:35.072Z,99
2023-05-03T01:58:07.354Z,99
2023-05-03T01:58:37.177Z,99
2023-05-03T01:59:08.393Z,99
2023-05-03T01:59:38.661Z,99
2023-05-03T02:00:12.061Z,99
2023-05-03T02:00:51.857Z,99
2023-05-03T02:01:12.793Z,99
2023-05-03T02:01:43.141Z,99
2023-05-03T02:02:14.554Z,99
2023-05-03T02:02:45.157Z,99
2023-05-03T02:03:17.546Z,99
2023-05-03T02:03:46.948Z,99
2023-05-03T02:04:18.446Z,99
2023-05-03T02:04:48.918Z,99
2023-05-03T02:05:20.888Z,99
2023-05-03T02:05:50.945Z,99
2023-05-03T02:06:22.753Z,99
2023-05-03T02:06:52.707Z,99
2023-05-03T02:07:24.602Z,99
2023-05-03T02:07:54.665Z,99
2023-05-03T02:08:27.363Z,99
2023-05-03T02:08:56.660Z,99
2023-05-03T02:09:28.338Z,99
2023-05-03T02:09:58.686Z,99
2023-05-03T02:10:31.303Z,99
2023-05-03T02:11:00.823Z,99
2023-05-03T02:11:32.630Z,99
2023-05-03T02:12:03.233Z,99
2023-05-03T02:12:34.379Z,99
2023-05-03T02:13:04.692Z,99
2023-05-03T02:13:37.334Z,99
2023-05-03T02:14:06.966Z,99
2023-05-03T02:14:38.727Z,99
2023-05-03T02:15:09.958Z,99
2023-05-03T02:15:40.395Z,99
2023-05-03T02:16:10.717Z,99
2023-05-03T02:16:42.438Z,99
2023-05-03T02:17:12.742Z,99
2023-05-03T02:17:45.183Z,99
2023-05-03T02:18:14.661Z,99
2023-05-03T02:18:47.353Z,99
2023-05-03T02:19:16.840Z,99
2023-05-03T02:19:49.232Z,99
2023-05-03T02:20:19.193Z,99
2023-05-03T02:20:50.353Z,99
2023-05-03T02:21:20.636Z,99
2023-05-03T02:21:52.361Z,99
2023-05-03T02:22:22.661Z,99
2023-05-03T02:22:54.446Z,99
2023-05-03T02:23:24.632Z,99
2023-05-03T02:23:57.712Z,99
2023-05-03T02:24:26.944Z,99
2023-05-03T02:24:58.348Z,99
2023-05-03T02:25:29.704Z,99
2023-05-03T02:26:00.410Z,99
2023-05-03T02:26:30.646Z,99
2023-05-03T02:27:02.427Z,99
2023-05-03T02:27:32.670Z,99
2023-05-03T02:28:04.865Z,99
2023-05-03T02:28:34.702Z,99
2023-05-03T02:29:07.401Z,99
2023-05-03T02:29:36.661Z,99
2023-05-03T02:30:08.500Z,99
2023-05-03T02:30:38.742Z,99
2023-05-03T02:31:10.360Z,99
2023-05-03T02:31:40.665Z,99
2023-05-03T02:32:12.362Z,99
2023-05-03T02:32:42.724Z,99
2023-05-03T02:33:14.338Z,99
2023-05-03T02:33:44.656Z,99
2023-05-03T02:34:17.335Z,99
2023-05-03T02:34:46.962Z,99
2023-05-03T02:35:18.891Z,99
2023-05-03T02:35:48.647Z,99
2023-05-03T02:36:20.591Z,99
2023-05-03T02:36:50.822Z,99
2023-05-03T02:37:22.666Z,99
2023-05-03T02:37:52.664Z,99
2023-05-03T02:38:24.383Z,99
2023-05-03T02:38:55.102Z,99
2023-05-03T02:39:27.300Z,99
2023-05-03T02:39:56.623Z,99
2023-05-03T02:40:36.827Z,99
2023-05-03T02:40:58.654Z,99
2023-05-03T02:41:30.748Z,99
2023-05-03T02:42:00.797Z,99
2023-05-03T02:42:32.387Z,99
2023-05-03T02:43:02.833Z,99
2023-05-03T02:43:35.328Z,99
2023-05-03T02:44:04.685Z,99
2023-05-03T02:44:37.650Z,99
2023-05-03T02:45:07.824Z,99
2023-05-03T02:45:38.401Z,99
2023-05-03T02:46:08.741Z,99
2023-05-03T02:46:40.465Z,99
2023-05-03T02:47:10.891Z,99
2023-05-03T02:47:42.417Z,99
2023-05-03T02:48:12.651Z,99
2023-05-03T02:48:44.405Z,99
2023-05-03T02:49:14.688Z,99
2023-05-03T02:49:47.353Z,99
2023-05-03T02:50:17.248Z,99
2023-05-03T02:50:48.355Z,99
2023-05-03T02:51:18.664Z,99
2023-05-03T02:51:50.352Z,99
2023-05-03T02:52:21.306Z,99
2023-05-03T02:52:52.381Z,99
2023-05-03T02:53:22.672Z,99
2023-05-03T02:53:54.356Z,99
2023-05-03T02:54:24.658Z,99
2023-05-03T02:54:57.437Z,99
2023-05-03T02:55:27.416Z,99
2023-05-03T02:55:58.326Z,99
2023-05-03T02:56:28.654Z,99
2023-05-03T02:57:00.332Z,99
2023-05-03T02:57:31.138Z,99
2023-05-03T02:58:02.376Z,99
2023-05-03T02:58:32.623Z,99
2023-05-03T02:59:04.542Z,99
2023-05-03T02:59:34.640Z,99
2023-05-03T03:00:08.968Z,99
2023-05-03T03:00:43.653Z,99
2023-05-03T03:01:08.505Z,99
2023-05-03T03:01:38.802Z,99
2023-05-03T03:02:10.440Z,99
2023-05-03T03:02:40.767Z,99
2023-05-03T03:03:12.894Z,99
2023-05-03T03:03:42.895Z,99
2023-05-03T03:04:14.399Z,99
2023-05-03T03:04:44.726Z,99
2023-05-03T03:05:18.001Z,99
2023-05-03T03:05:47.497Z,99
2023-05-03T03:06:18.471Z,99
2023-05-03T03:06:48.721Z,99
2023-05-03T03:07:20.506Z,99
2023-05-03T03:07:50.754Z,99
2023-05-03T03:08:22.860Z,99
2023-05-03T03:08:52.699Z,99
2023-05-03T03:09:24.616Z,99
2023-05-03T03:09:54.885Z,99
2023-05-03T03:10:28.151Z,99
2023-05-03T03:10:56.654Z,99
2023-05-03T03:11:28.337Z,99
2023-05-03T03:11:58.665Z,99
2023-05-03T03:12:30.586Z,99
2023-05-03T03:13:00.963Z,99
2023-05-03T03:13:32.360Z,99
2023-05-03T03:14:02.741Z,99
2023-05-03T03:14:35.419Z,99
2023-05-03T03:15:06.811Z,99
2023-05-03T03:15:37.398Z,99
2023-05-03T03:16:07.409Z,99
2023-05-03T03:16:38.472Z,99
2023-05-03T03:17:08.695Z,99
2023-05-03T03:17:40.565Z,99
2023-05-03T03:18:10.808Z,99
2023-05-03T03:18:42.346Z,99
2023-05-03T03:19:13.214Z,99
2023-05-03T03:19:44.540Z,99
2023-05-03T03:20:15.165Z,99
2023-05-03T03:20:47.461Z,99
2023-05-03T03:21:16.688Z,99
2023-05-03T03:21:48.850Z,99
2023-05-03T03:22:18.801Z,99
2023-05-03T03:22:50.360Z,99
2023-05-03T03:23:20.746Z,99
2023-05-03T03:23:52.458Z,99
2023-05-03T03:24:22.687Z,99
2023-05-03T03:24:54.406Z,99
2023-05-03T03:25:25.195Z,99
2023-05-03T03:25:57.556Z,99
2023-05-03T03:26:26.944Z,99
2023-05-03T03:26:58.435Z,99
2023-05-03T03:27:28.621Z,99
2023-05-03T03:28:00.337Z,99
2023-05-03T03:28:30.846Z,99
2023-05-03T03:29:02.483Z,99
2023-05-03T03:29:32.681Z,99
2023-05-03T03:30:04.972Z,99
2023-05-03T03:30:34.691Z,99
2023-05-03T03:31:07.984Z,99
2023-05-03T03:31:36.700Z,99
2023-05-03T03:32:08.352Z,99
2023-05-03T03:32:39.031Z,99
2023-05-03T03:33:10.353Z,99
2023-05-03T03:33:40.654Z,99
2023-05-03T03:34:19.346Z,99
2023-05-03T03:34:43.199Z,99
2023-05-03T03:35:14.220Z,99
2023-05-03T03:35:45.448Z,99
2023-05-03T03:36:16.636Z,99
2023-05-03T03:36:47.633Z,99
2023-05-03T03:37:17.642Z,99
2023-05-03T03:37:49.385Z,99
2023-05-03T03:38:19.658Z,99
2023-05-03T03:38:51.362Z,99
2023-05-03T03:39:21.993Z,99
2023-05-03T03:39:53.376Z,99
2023-05-03T03:40:24.336Z,99
2023-05-03T03:40:55.359Z,99
2023-05-03T03:41:26.648Z,99
2023-05-03T03:41:57.897Z,99
2023-05-03T03:42:27.630Z,99
2023-05-03T03:42:59.339Z,99
2023-05-03T03:43:29.661Z,99
2023-05-03T03:44:01.379Z,99
2023-05-03T03:44:31.782Z,99
2023-05-03T03:45:04.594Z,99
2023-05-03T03:45:33.683Z,99
2023-05-03T03:46:05.597Z,99
2023-05-03T03:46:36.653Z,99
2023-05-03T03:47:07.700Z,99
2023-05-03T03:47:37.876Z,99
2023-05-03T03:48:09.591Z,99
2023-05-03T03:48:39.768Z,99
2023-05-03T03:49:11.474Z,99
2023-05-03T03:49:41.653Z,99
2023-05-03T03:50:14.111Z,99
2023-05-03T03:50:43.812Z,99
2023-05-03T03:51:15.418Z,99
2023-05-03T03:51:46.772Z,99
2023-05-03T03:52:17.541Z,99
2023-05-03T03:52:48.185Z,99
2023-05-03T03:53:19.492Z,99
2023-05-03T03:53:49.800Z,99
2023-05-03T03:54:21.506Z,99
2023-05-03T03:54:51.789Z,99
2023-05-03T03:55:24.612Z,99
2023-05-03T03:55:53.779Z,99
2023-05-03T03:56:25.631Z,99
2023-05-03T03:56:56.791Z,99
2023-05-03T03:57:28.028Z,99
2023-05-03T03:57:57.815Z,99
2023-05-03T03:58:29.496Z,99
2023-05-03T03:58:59.796Z,99
2023-05-03T03:59:31.801Z,99
2023-05-03T04:00:03.763Z,99
2023-05-03T04:00:34.045Z,99
2023-05-03T04:01:03.778Z,99
2023-05-03T04:01:35.596Z,99
2023-05-03T04:02:07.256Z,99
2023-05-03T04:02:37.730Z,99
2023-05-03T04:03:08.334Z,99
2023-05-03T04:03:39.666Z,99
2023-05-03T04:04:09.847Z,99
2023-05-03T04:04:41.551Z,99
2023-05-03T04:05:12.500Z,99
2023-05-03T04:05:43.457Z,99
2023-05-03T04:06:14.222Z,99
2023-05-03T04:06:45.650Z,99
2023-05-03T04:07:16.819Z,99
2023-05-03T04:07:47.698Z,99
2023-05-03T04:08:17.818Z,99
2023-05-03T04:08:50.071Z,99
2023-05-03T04:09:19.836Z,99
2023-05-03T04:09:51.424Z,99
2023-05-03T04:10:22.298Z,99
2023-05-03T04:10:53.474Z,99
2023-05-03T04:11:23.809Z,99
2023-05-03T04:11:55.960Z,99
2023-05-03T04:12:26.802Z,99
2023-05-03T04:12:57.715Z,99
2023-05-03T04:13:27.840Z,99
2023-05-03T04:13:59.522Z,99
2023-05-03T04:14:29.977Z,99
2023-05-03T04:15:02.958Z,99
2023-05-03T04:15:32.008Z,99
2023-05-03T04:16:04.782Z,99
2023-05-03T04:16:33.892Z,99
2023-05-03T04:17:05.599Z,99
2023-05-03T04:17:36.788Z,99
2023-05-03T04:18:07.805Z,99
2023-05-03T04:18:37.807Z,99
2023-05-03T04:19:09.520Z,99
2023-05-03T04:19:40.271Z,99
2023-05-03T04:20:12.005Z,99
2023-05-03T04:20:42.302Z,99
2023-05-03T04:21:13.537Z,99
2023-05-03T04:21:43.790Z,99
2023-05-03T04:22:15.952Z,99
2023-05-03T04:22:46.737Z,99
2023-05-03T04:23:17.500Z,99
2023-05-03T04:23:47.760Z,99
2023-05-03T04:24:19.549Z,99
2023-05-03T04:24:49.777Z,99
2023-05-03T04:25:21.980Z,99
2023-05-03T04:25:51.789Z,99
2023-05-03T04:26:31.405Z,99
2023-05-03T04:26:53.834Z,99
2023-05-03T04:27:26.576Z,99
2023-05-03T04:27:56.877Z,99
2023-05-03T04:28:27.764Z,99
2023-05-03T04:28:57.918Z,99
2023-05-03T04:29:29.468Z,99
2023-05-03T04:29:59.945Z,99
2023-05-03T04:30:31.847Z,99
2023-05-03T04:31:01.838Z,99
2023-05-03T04:31:33.672Z,99
2023-05-03T04:32:03.812Z,99
2023-05-03T04:32:35.869Z,99
2023-05-03T04:33:06.846Z,99
2023-05-03T04:33:37.674Z,99
2023-05-03T04:34:07.765Z,99
2023-05-03T04:34:39.486Z,99
2023-05-03T04:35:10.744Z,99
2023-05-03T04:35:42.074Z,99
2023-05-03T04:36:11.791Z,99
2023-05-03T04:36:43.865Z,99
2023-05-03T04:37:13.841Z,99
2023-05-03T04:37:45.482Z,99
2023-05-03T04:38:16.768Z,99
2023-05-03T04:38:47.794Z,99
2023-05-03T04:39:17.717Z,99
2023-05-03T04:39:49.716Z,99
2023-05-03T04:40:20.297Z,99
2023-05-03T04:40:51.498Z,99
2023-05-03T04:41:21.757Z,99
2023-05-03T04:41:53.573Z,99
2023-05-03T04:42:23.782Z,99
2023-05-03T04:42:55.544Z,99
2023-05-03T04:43:26.739Z,99
2023-05-03T04:43:57.461Z,99
2023-05-03T04:44:28.250Z,99
2023-05-03T04:44:59.715Z,99
2023-05-03T04:45:30.671Z,99
2023-05-03T04:46:01.667Z,99
2023-05-03T04:46:32.757Z,99
2023-05-03T04:47:03.562Z,99
2023-05-03T04:47:33.817Z,99
2023-05-03T04:48:05.612Z,99
2023-05-03T04:48:36.767Z,99
2023-05-03T04:49:08.452Z,99
2023-05-03T04:49:37.821Z,99
2023-05-03T04:50:09.950Z,99
2023-05-03T04:50:39.884Z,99
2023-05-03T04:51:11.436Z,99
2023-05-03T04:51:41.835Z,99
2023-05-03T04:52:13.464Z,99
2023-05-03T04:52:43.748Z,99
2023-05-03T04:53:15.963Z,99
2023-05-03T04:53:46.808Z,99
2023-05-03T04:54:17.495Z,99
2023-05-03T04:54:47.755Z,99
2023-05-03T04:55:20.039Z,99
2023-05-03T04:55:49.813Z,99
2023-05-03T04:56:21.478Z,99
2023-05-03T04:56:51.818Z,99
2023-05-03T04:57:23.711Z,99
2023-05-03T04:57:53.850Z,99
2023-05-03T04:58:25.401Z,99
2023-05-03T04:58:57.036Z,99
2023-05-03T04:59:27.721Z,99
2023-05-03T04:59:58.317Z,99
2023-05-03T05:00:30.915Z,99
2023-05-03T05:00:59.845Z,99
2023-05-03T05:01:31.533Z,99
2023-05-03T05:02:02.187Z,99
2023-05-03T05:02:33.563Z,99
2023-05-03T05:03:03.924Z,99
2023-05-03T05:03:36.557Z,99
2023-05-03T05:04:06.856Z,99
2023-05-03T05:04:37.446Z,99
2023-05-03T05:05:08.348Z,99
2023-05-03T05:05:39.494Z,99
2023-05-03T05:06:09.884Z,99
2023-05-03T05:06:42.105Z,99
2023-05-03T05:07:11.751Z,99
2023-05-03T05:07:43.429Z,99
2023-05-03T05:08:13.780Z,99
2023-05-03T05:08:45.488Z,99
2023-05-03T05:09:17.366Z,99
2023-05-03T05:09:48.751Z,99
2023-05-03T05:10:18.285Z,99
2023-05-03T05:10:49.496Z,99
2023-05-03T05:11:19.722Z,99
2023-05-03T05:11:51.457Z,99
2023-05-03T05:12:21.760Z,99
2023-05-03T05:12:54.574Z,99
2023-05-03T05:13:24.420Z,99
2023-05-03T05:13:54.801Z,99
2023-05-03T05:14:27.483Z,99
2023-05-03T05:14:56.781Z,99
2023-05-03T05:15:29.381Z,99
2023-05-03T05:15:59.252Z,99
2023-05-03T05:16:30.510Z,99
2023-05-03T05:17:00.932Z,99
2023-05-03T05:17:32.659Z,99
2023-05-03T05:18:02.902Z,99
2023-05-03T05:18:35.193Z,99
2023-05-03T05:19:05.052Z,99
2023-05-03T05:19:37.486Z,99
2023-05-03T05:20:08.550Z,99
2023-05-03T05:20:39.932Z,99
2023-05-03T05:21:08.724Z,99
2023-05-03T05:21:40.608Z,99
2023-05-03T05:22:10.865Z,99
2023-05-03T05:22:42.470Z,99
2023-05-03T05:23:12.816Z,99
2023-05-03T05:23:44.447Z,99
2023-05-03T05:24:14.968Z,99
2023-05-03T05:24:47.512Z,99
2023-05-03T05:25:17.400Z,99
2023-05-03T05:25:48.484Z,99
2023-05-03T05:26:18.767Z,99
2023-05-03T05:26:51.069Z,99
2023-05-03T05:27:20.822Z,99
2023-05-03T05:27:52.474Z,99
2023-05-03T05:28:22.822Z,99
2023-05-03T05:28:54.447Z,99
2023-05-03T05:29:24.860Z,99
2023-05-03T05:29:57.536Z,99
2023-05-03T05:30:28.196Z,99
2023-05-03T05:30:58.101Z,99
2023-05-03T05:31:29.485Z,99
2023-05-03T05:31:59.860Z,99
2023-05-03T05:32:31.476Z,99
2023-05-03T05:33:02.053Z,99
2023-05-03T05:33:34.120Z,99
2023-05-03T05:34:03.842Z,99
2023-05-03T05:34:45.284Z,99
2023-05-03T05:35:07.395Z,99
2023-05-03T05:35:37.472Z,99
2023-05-03T05:36:07.799Z,99
2023-05-03T05:36:39.473Z,99
2023-05-03T05:37:09.908Z,99
2023-05-03T05:37:41.489Z,99
2023-05-03T05:38:11.789Z,99
2023-05-03T05:38:43.458Z,99
2023-05-03T05:39:13.754Z,99
2023-05-03T05:39:46.013Z,99
2023-05-03T05:40:17.662Z,99
2023-05-03T05:40:48.895Z,99
2023-05-03T05:41:17.776Z,99
2023-05-03T05:41:49.475Z,99
2023-05-03T05:42:19.762Z,99
2023-05-03T05:42:51.638Z,99
2023-05-03T05:43:21.916Z,99
2023-05-03T05:43:53.592Z,99
2023-05-03T05:44:24.048Z,99
2023-05-03T05:44:55.556Z,99
2023-05-03T05:45:28.372Z,99
2023-05-03T05:45:57.472Z,99
2023-05-03T05:46:27.821Z,99
2023-05-03T05:47:00.245Z,99
2023-05-03T05:47:29.808Z,99
2023-05-03T05:48:01.624Z,99
2023-05-03T05:48:31.958Z,99
2023-05-03T05:49:03.610Z,99
2023-05-03T05:49:33.733Z,99
2023-05-03T05:50:16.737Z,99
2023-05-03T05:50:36.776Z,99
2023-05-03T05:51:07.833Z,99
2023-05-03T05:51:37.705Z,99
2023-05-03T05:52:09.591Z,99
2023-05-03T05:52:39.878Z,99
2023-05-03T05:53:11.776Z,99
2023-05-03T05:53:42.378Z,99
2023-05-03T05:54:13.620Z,99
2023-05-03T05:54:44.047Z,99
2023-05-03T05:55:16.098Z,99
2023-05-03T05:55:46.969Z,99
2023-05-03T05:56:17.628Z,99
2023-05-03T05:56:47.902Z,99
2023-05-03T05:57:19.745Z,99
2023-05-03T05:57:50.269Z,99
2023-05-03T05:58:21.618Z,99
2023-05-03T05:58:51.961Z,99
2023-05-03T05:59:23.704Z,99
2023-05-03T05:59:54.290Z,99
2023-05-03T06:00:28.330Z,99
2023-05-03T06:00:57.170Z,99
2023-05-03T06:01:27.895Z,99
2023-05-03T06:01:58.420Z,99
2023-05-03T06:02:29.821Z,99
2023-05-03T06:02:59.895Z,99
2023-05-03T06:03:31.716Z,99
2023-05-03T06:04:02.135Z,99
2023-05-03T06:04:33.734Z,99
2023-05-03T06:05:06.955Z,99
2023-05-03T06:05:35.661Z,99
2023-05-03T06:06:06.929Z,99
2023-05-03T06:06:39.463Z,99
2023-05-03T06:07:08.566Z,99
2023-05-03T06:07:38.901Z,99
2023-05-03T06:08:10.668Z,99
2023-05-03T06:08:40.935Z,99
2023-05-03T06:09:23.581Z,99
2023-05-03T06:09:42.947Z,99
2023-05-03T06:10:15.177Z,99
2023-05-03T06:10:44.943Z,99
2023-05-03T06:11:17.703Z,99
2023-05-03T06:11:47.184Z,99
2023-05-03T06:12:18.745Z,99
2023-05-03T06:12:48.952Z,99
2023-05-03T06:13:21.737Z,99
2023-05-03T06:13:51.419Z,99
2023-05-03T06:14:23.053Z,99
2023-05-03T06:15:01.909Z,99
2023-05-03T06:15:25.616Z,99
2023-05-03T06:15:54.969Z,99
2023-05-03T06:16:28.514Z,99
2023-05-03T06:16:57.089Z,99
2023-05-03T06:17:28.675Z,99
2023-05-03T06:17:59.414Z,99
2023-05-03T06:18:30.754Z,99
2023-05-03T06:19:01.661Z,99
2023-05-03T06:19:32.711Z,99
2023-05-03T06:20:03.954Z,99
2023-05-03T06:20:40.548Z,99
2023-05-03T06:21:04.967Z,99
2023-05-03T06:21:40.601Z,99
2023-05-03T06:22:07.436Z,99
2023-05-03T06:22:37.917Z,99
2023-05-03T06:23:09.562Z,99
2023-05-03T06:23:39.885Z,99
2023-05-03T06:24:11.714Z,99
2023-05-03T06:24:42.404Z,99
2023-05-03T06:25:16.900Z,99
2023-05-03T06:25:43.927Z,99
2023-05-03T06:26:15.630Z,99
2023-05-03T06:26:46.844Z,99
2023-05-03T06:27:18.251Z,99
2023-05-03T06:27:47.878Z,99
2023-05-03T06:28:19.615Z,99
2023-05-03T06:28:49.970Z,99
2023-05-03T06:29:21.603Z,99
2023-05-03T06:29:51.900Z,99
2023-05-03T06:30:24.131Z,99
2023-05-03T06:30:53.987Z,99
2023-05-03T06:31:25.616Z,99
2023-05-03T06:31:56.864Z,99
2023-05-03T06:32:28.122Z,99
2023-05-03T06:32:57.928Z,99
2023-05-03T06:33:29.831Z,99
2023-05-03T06:34:00.514Z,99
2023-05-03T06:34:31.707Z,99
2023-05-03T06:35:03.495Z,99
2023-05-03T06:35:33.784Z,99
2023-05-03T06:36:03.955Z,99
2023-05-03T06:36:36.798Z,99
2023-05-03T06:37:06.987Z,98
2023-05-03T06:37:38.858Z,98
2023-05-03T06:38:08.379Z,98
2023-05-03T06:38:39.647Z,98
2023-05-03T06:39:10.342Z,98
2023-05-03T06:39:41.607Z,98
2023-05-03T06:40:12.334Z,97
2023-05-03T06:40:47.680Z,98
2023-05-03T06:41:13.960Z,97
2023-05-03T06:41:45.772Z,97
2023-05-03T06:42:17.092Z,97
2023-05-03T06:42:47.911Z,97
2023-05-03T06:43:17.916Z,97
2023-05-03T06:43:49.714Z,97
2023-05-03T06:44:20.053Z,97
2023-05-03T06:44:51.654Z,97
2023-05-03T06:45:22.798Z,97
2023-05-03T06:45:53.648Z,97
2023-05-03T06:46:23.994Z,97
2023-05-03T06:46:55.761Z,97
2023-05-03T06:47:27.744Z,97
2023-05-03T06:47:57.603Z,97
2023-05-03T06:48:28.023Z,97
2023-05-03T06:48:59.927Z,97
2023-05-03T06:49:29.905Z,97
2023-05-03T06:50:04.371Z,97
2023-05-03T06:50:32.146Z,97
2023-05-03T06:51:03.674Z,96
2023-05-03T06:51:34.504Z,96
2023-05-03T06:52:05.756Z,96
2023-05-03T06:52:36.894Z,95
2023-05-03T06:53:07.896Z,95
2023-05-03T06:53:37.889Z,95
2023-05-03T06:54:10.094Z,95
2023-05-03T06:54:39.900Z,95
2023-05-03T06:55:12.165Z,95
2023-05-03T06:55:41.916Z,95
2023-05-03T06:56:13.643Z,95
2023-05-03T06:56:43.950Z,95
2023-05-03T06:57:15.574Z,94
2023-05-03T06:57:46.871Z,95
2023-05-03T06:58:17.580Z,95
2023-05-03T06:58:47.884Z,95
2023-05-03T06:59:20.473Z,94
2023-05-03T06:59:49.926Z,94
2023-05-03T07:00:23.531Z,94
2023-05-03T07:00:52.865Z,94
2023-05-03T07:01:23.634Z,94
2023-05-03T07:01:54.039Z,94
2023-05-03T07:02:25.729Z,95
2023-05-03T07:02:57.046Z,95
2023-05-03T07:03:28.221Z,94
2023-05-03T07:03:57.978Z,94
2023-05-03T07:04:29.637Z,94
2023-05-03T07:05:00.904Z,94
2023-05-03T07:05:32.458Z,94
2023-05-03T07:06:02.248Z,94
2023-05-03T07:06:40.641Z,93
2023-05-03T07:07:04.263Z,93
2023-05-03T07:07:36.388Z,93
2023-05-03T07:08:06.864Z,93
2023-05-03T07:08:37.574Z,93
2023-05-03T07:09:07.916Z,92
2023-05-03T07:09:43.583Z,92
2023-05-03T07:10:10.374Z,93
2023-05-03T07:10:41.603Z,92
2023-05-03T07:11:11.921Z,92
2023-05-03T07:11:43.586Z,91
2023-05-03T07:12:13.884Z,91
2023-05-03T07:12:45.649Z,91
2023-05-03T07:13:17.027Z,92
2023-05-03T07:13:47.934Z,92
2023-05-03T07:14:17.862Z,91
2023-05-03T07:14:50.650Z,91
2023-05-03T07:15:20.835Z,91
2023-05-03T07:15:51.637Z,91
2023-05-03T07:16:22.205Z,91
2023-05-03T07:16:53.557Z,92
2023-05-03T07:17:23.970Z,92
2023-05-03T07:17:56.688Z,91
2023-05-03T07:18:26.909Z,92
2023-05-03T07:18:57.604Z,91
2023-05-03T07:19:27.907Z,91
2023-05-03T07:19:59.602Z,91
2023-05-03T07:20:39.827Z,91
2023-05-03T07:21:02.567Z,91
2023-05-03T07:21:32.051Z,91
2023-05-03T07:22:03.698Z,91